createdAt,value
2022-09-07T00:00:09.740Z,36.09
2022-09-07T00:00:48.093Z,36.47
2022-09-07T00:01:26.852Z,36.22
2022-09-07T00:02:04.445Z,35.95
2022-09-07T00:02:42.640Z,36.30
2022-09-07T00:03:20.767Z,36.11
2022-09-07T00:03:57.719Z,36.21
2022-09-07T00:04:36.552Z,35.95
2022-09-07T00:05:15.442Z,36.46
2022-09-07T00:05:52.168Z,36.28
2022-09-07T00:06:30.567Z,35.91
2022-09-07T00:07:08.945Z,36.35
2022-09-07T00:07:47.602Z,36.43
2022-09-07T00:08:24.626Z,35.98
2022-09-07T00:09:02.921Z,36.40
2022-09-07T00:09:40.888Z,35.78
2022-09-07T00:10:19.909Z,36.25
2022-09-07T00:10:55.027Z,36.40
2022-09-07T00:11:31.547Z,36.47
2022-09-07T00:12:08.934Z,36.00
2022-09-07T00:12:46.084Z,36.21
2022-09-07T00:13:24.227Z,36.24
2022-09-07T00:14:02.746Z,36.05
2022-09-07T00:14:40.550Z,36.22
2022-09-07T00:15:17.255Z,36.38
2022-09-07T00:15:54.421Z,36.14
2022-09-07T00:16:31.212Z,36.23
2022-09-07T00:17:08.312Z,36.48
2022-09-07T00:17:45.046Z,36.42
2022-09-07T00:18:22.434Z,36.31
2022-09-07T00:18:59.312Z,36.20
2022-09-07T00:19:36.705Z,36.74
2022-09-07T00:20:15.429Z,36.42
2022-09-07T00:20:59.896Z,36.48
2022-09-07T00:21:38.438Z,36.31
2022-09-07T00:22:16.291Z,36.69
2022-09-07T00:22:54.404Z,36.25
2022-09-07T00:23:32.071Z,36.74
2022-09-07T00:24:09.363Z,36.76
2022-09-07T00:24:47.818Z,36.42
2022-09-07T00:25:25.379Z,36.50
2022-09-07T00:26:04.751Z,36.32
2022-09-07T00:26:42.644Z,36.77
2022-09-07T00:27:19.438Z,36.84
2022-09-07T00:27:56.927Z,36.44
2022-09-07T00:28:33.973Z,36.83
2022-09-07T00:29:10.732Z,36.51
2022-09-07T00:29:47.858Z,36.49
2022-09-07T00:30:25.332Z,36.92
2022-09-07T00:31:02.583Z,36.94
2022-09-07T00:31:40.956Z,36.90
2022-09-07T00:32:17.675Z,37.05
2022-09-07T00:32:54.479Z,37.30
2022-09-07T00:33:32.891Z,36.88
2022-09-07T00:34:09.602Z,37.05
2022-09-07T00:34:46.556Z,37.07
2022-09-07T00:35:24.231Z,37.21
2022-09-07T00:36:01.919Z,37.23
2022-09-07T00:36:40.281Z,37.26
2022-09-07T00:37:16.782Z,37.75
2022-09-07T00:37:54.146Z,37.38
2022-09-07T00:38:31.244Z,37.55
2022-09-07T00:39:07.669Z,37.55
2022-09-07T00:39:44.663Z,37.42
2022-09-07T00:40:21.700Z,37.76
2022-09-07T00:40:58.510Z,37.58
2022-09-07T00:41:35.196Z,37.47
2022-09-07T00:42:12.265Z,37.41
2022-09-07T00:42:48.835Z,37.43
2022-09-07T00:43:53.736Z,37.50
2022-09-07T00:44:44.331Z,37.90
2022-09-07T00:45:21.469Z,37.95
2022-09-07T00:45:59.733Z,37.67
2022-09-07T00:46:38.870Z,37.71
2022-09-07T00:47:15.397Z,37.90
2022-09-07T00:47:53.592Z,37.97
2022-09-07T00:48:34.742Z,37.65
2022-09-07T00:49:12.265Z,37.94
2022-09-07T00:49:50.127Z,37.68
2022-09-07T00:50:27.746Z,37.67
2022-09-07T00:51:06.513Z,38.00
2022-09-07T00:51:49.683Z,37.76
2022-09-07T00:52:28.736Z,37.86
2022-09-07T00:53:08.499Z,37.69
2022-09-07T00:53:46.997Z,37.61
2022-09-07T00:54:26.098Z,37.78
2022-09-07T00:55:04.563Z,38.06
2022-09-07T00:55:42.610Z,37.96
2022-09-07T00:56:20.436Z,37.84
2022-09-07T00:56:58.445Z,37.64
2022-09-07T00:57:35.183Z,37.53
2022-09-07T00:58:14.721Z,38.07
2022-09-07T00:58:54.327Z,37.99
2022-09-07T00:59:31.938Z,37.68
2022-09-07T01:00:08.858Z,37.73
2022-09-07T01:00:45.834Z,38.01
2022-09-07T01:01:24.034Z,37.69
2022-09-07T01:02:01.096Z,38.10
2022-09-07T01:02:38.302Z,37.66
2022-09-07T01:03:14.953Z,37.92
2022-09-07T01:03:52.482Z,37.95
2022-09-07T01:04:29.491Z,37.55
2022-09-07T01:05:10.088Z,37.91
2022-09-07T01:05:47.502Z,37.96
2022-09-07T01:06:24.338Z,37.62
2022-09-07T01:07:01.126Z,37.67
2022-09-07T01:07:38.331Z,37.73
2022-09-07T01:08:14.982Z,37.56
2022-09-07T01:08:51.749Z,37.88
2022-09-07T01:09:29.314Z,37.71
2022-09-07T01:10:06.616Z,37.53
2022-09-07T01:10:43.195Z,37.76
2022-09-07T01:11:23.716Z,37.90
2022-09-07T01:12:04.389Z,37.61
2022-09-07T01:12:42.643Z,37.92
2022-09-07T01:13:20.699Z,38.05
2022-09-07T01:13:59.670Z,38.10
2022-09-07T01:14:40.867Z,38.37
2022-09-07T01:15:17.895Z,38.24
2022-09-07T01:16:02.444Z,38.30
2022-09-07T01:17:01.566Z,38.09
2022-09-07T01:17:43.804Z,37.96
2022-09-07T01:18:26.359Z,37.85
2022-09-07T01:19:31.512Z,38.04
2022-09-07T01:20:25.149Z,38.06
2022-09-07T01:21:21.450Z,38.17
2022-09-07T01:22:04.031Z,38.23
2022-09-07T01:22:51.168Z,38.21
2022-09-07T01:23:35.710Z,38.29
2022-09-07T01:24:14.208Z,38.34
2022-09-07T01:25:08.539Z,38.71
2022-09-07T01:25:55.988Z,38.75
2022-09-07T01:26:37.716Z,38.66
2022-09-07T01:27:31.430Z,38.43
2022-09-07T01:28:22.705Z,38.93
2022-09-07T01:29:07.331Z,38.38
2022-09-07T01:29:47.962Z,38.92
2022-09-07T01:30:25.440Z,38.66
2022-09-07T01:31:12.899Z,38.76
2022-09-07T01:31:48.534Z,38.81
2022-09-07T01:32:26.788Z,38.78
2022-09-07T01:33:06.101Z,38.92
2022-09-07T01:33:41.610Z,39.10
2022-09-07T01:34:22.137Z,39.27
2022-09-07T01:34:58.975Z,39.58
2022-09-07T01:35:52.655Z,39.73
2022-09-07T01:36:34.992Z,40.04
2022-09-07T01:37:16.144Z,40.26
2022-09-07T01:37:56.917Z,39.49
2022-09-07T01:38:38.254Z,40.08
2022-09-07T01:39:14.537Z,40.13
2022-09-07T01:39:54.110Z,40.26
2022-09-07T01:40:39.068Z,40.15
2022-09-07T01:41:29.359Z,39.93
2022-09-07T01:42:09.587Z,40.06
2022-09-07T01:42:49.370Z,40.18
2022-09-07T01:43:30.154Z,40.18
2022-09-07T01:44:17.397Z,40.70
2022-09-07T01:44:58.284Z,40.75
2022-09-07T01:45:36.938Z,40.77
2022-09-07T01:46:41.183Z,40.68
2022-09-07T01:47:25.229Z,41.32
2022-09-07T01:48:02.119Z,40.81
2022-09-07T01:48:41.010Z,40.33
2022-09-07T01:49:18.171Z,40.83
2022-09-07T01:50:11.900Z,40.98
2022-09-07T01:50:47.878Z,40.71
2022-09-07T01:51:25.230Z,41.18
2022-09-07T01:52:04.959Z,41.41
2022-09-07T01:52:43.852Z,41.20
2022-09-07T01:53:21.957Z,41.45
2022-09-07T01:54:01.087Z,41.47
2022-09-07T01:54:37.801Z,41.60
2022-09-07T01:55:22.039Z,42.01
2022-09-07T01:55:59.347Z,41.98
2022-09-07T01:56:38.850Z,41.73
2022-09-07T01:57:19.325Z,41.87
2022-09-07T01:58:21.117Z,41.71
2022-09-07T01:58:59.966Z,41.73
2022-09-07T01:59:44.206Z,42.09
2022-09-07T02:00:20.854Z,41.90
2022-09-07T02:01:03.873Z,42.14
2022-09-07T02:01:51.885Z,42.17
2022-09-07T02:02:31.021Z,42.45
2022-09-07T02:03:08.791Z,42.39
2022-09-07T02:03:50.053Z,42.04
2022-09-07T02:04:27.638Z,42.02
2022-09-07T02:05:25.426Z,42.16
2022-09-07T02:06:02.762Z,42.49
2022-09-07T02:06:38.734Z,42.53
2022-09-07T02:07:23.887Z,42.66
2022-09-07T02:08:04.583Z,42.61
2022-09-07T02:08:43.362Z,42.87
2022-09-07T02:09:24.032Z,42.92
2022-09-07T02:10:09.136Z,42.68
2022-09-07T02:10:46.398Z,42.81
2022-09-07T02:11:23.615Z,42.38
2022-09-07T02:12:00.980Z,42.71
2022-09-07T02:12:46.657Z,43.01
2022-09-07T02:13:24.577Z,42.71
2022-09-07T02:14:03.934Z,43.39
2022-09-07T02:14:42.142Z,42.48
2022-09-07T02:15:22.615Z,43.03
2022-09-07T02:15:58.341Z,43.47
2022-09-07T02:16:35.672Z,42.95
2022-09-07T02:17:14.585Z,42.99
2022-09-07T02:17:52.780Z,42.35
2022-09-07T02:18:32.034Z,42.23
2022-09-07T02:19:09.920Z,42.26
2022-09-07T02:19:56.154Z,42.79
2022-09-07T02:20:34.352Z,42.34
2022-09-07T02:21:13.735Z,43.01
2022-09-07T02:21:50.713Z,43.50
2022-09-07T02:22:28.456Z,43.32
2022-09-07T02:23:07.738Z,43.04
2022-09-07T02:23:47.245Z,43.55
2022-09-07T02:24:24.725Z,43.31
2022-09-07T02:25:01.847Z,43.77
2022-09-07T02:25:40.909Z,43.18
2022-09-07T02:26:18.241Z,43.34
2022-09-07T02:26:56.588Z,43.35
2022-09-07T02:27:41.852Z,43.48
2022-09-07T02:28:18.520Z,43.24
2022-09-07T02:28:57.106Z,42.98
2022-09-07T02:29:35.115Z,43.37
2022-09-07T02:30:13.262Z,43.03
2022-09-07T02:30:51.201Z,43.28
2022-09-07T02:31:29.407Z,42.86
2022-09-07T02:32:07.504Z,43.52
2022-09-07T02:32:46.377Z,43.31
2022-09-07T02:33:24.735Z,43.40
2022-09-07T02:34:02.768Z,44.05
2022-09-07T02:34:42.277Z,43.25
2022-09-07T02:35:20.816Z,43.41
2022-09-07T02:35:59.039Z,43.63
2022-09-07T02:36:36.734Z,43.20
2022-09-07T02:37:15.255Z,43.41
2022-09-07T02:37:53.425Z,43.84
2022-09-07T02:38:32.007Z,43.78
2022-09-07T02:39:09.955Z,43.53
2022-09-07T02:39:48.362Z,43.37
2022-09-07T02:40:25.553Z,43.68
2022-09-07T02:41:03.090Z,43.49
2022-09-07T02:41:42.978Z,43.69
2022-09-07T02:42:19.729Z,43.51
2022-09-07T02:42:56.595Z,43.53
2022-09-07T02:43:33.260Z,43.53
2022-09-07T02:44:11.063Z,43.78
2022-09-07T02:44:47.664Z,43.36
2022-09-07T02:45:25.359Z,43.65
2022-09-07T02:46:20.261Z,43.64
2022-09-07T02:47:05.015Z,43.45
2022-09-07T02:47:58.077Z,44.10
2022-09-07T02:48:45.326Z,43.82
2022-09-07T02:49:32.782Z,44.14
2022-09-07T02:50:14.714Z,43.69
2022-09-07T02:50:53.352Z,43.51
2022-09-07T02:51:38.035Z,43.46
2022-09-07T02:52:18.283Z,43.57
2022-09-07T02:52:59.315Z,43.79
2022-09-07T02:53:52.795Z,43.96
2022-09-07T02:54:33.638Z,43.68
2022-09-07T02:55:12.306Z,43.75
2022-09-07T02:55:52.783Z,43.99
2022-09-07T02:56:50.198Z,43.64
2022-09-07T02:57:28.723Z,44.22
2022-09-07T02:58:04.122Z,43.85
2022-09-07T02:58:45.063Z,43.95
2022-09-07T02:59:40.407Z,44.24
2022-09-07T03:00:20.152Z,44.07
2022-09-07T03:00:58.396Z,44.18
2022-09-07T03:01:33.629Z,44.50
2022-09-07T03:02:13.490Z,44.12
2022-09-07T03:03:00.917Z,44.18
2022-09-07T03:03:51.301Z,44.32
2022-09-07T03:04:27.903Z,44.02
2022-09-07T03:05:17.791Z,44.36
2022-09-07T03:06:02.697Z,44.24
2022-09-07T03:06:42.602Z,44.41
2022-09-07T03:07:23.394Z,44.53
2022-09-07T03:08:05.301Z,44.36
2022-09-07T03:08:44.095Z,44.33
2022-09-07T03:09:23.083Z,43.95
2022-09-07T03:10:01.558Z,43.96
2022-09-07T03:10:39.710Z,44.16
2022-09-07T03:11:18.474Z,44.11
2022-09-07T03:11:57.012Z,43.64
2022-09-07T03:12:46.415Z,43.91
2022-09-07T03:13:27.260Z,44.10
2022-09-07T03:14:15.844Z,44.33
2022-09-07T03:14:54.316Z,43.90
2022-09-07T03:15:32.693Z,44.27
2022-09-07T03:16:11.414Z,43.99
2022-09-07T03:16:49.300Z,44.17
2022-09-07T03:17:28.744Z,43.93
2022-09-07T03:18:06.859Z,43.81
2022-09-07T03:18:45.286Z,43.87
2022-09-07T03:19:23.456Z,43.92
2022-09-07T03:20:02.426Z,44.29
2022-09-07T03:20:40.478Z,43.84
2022-09-07T03:21:18.366Z,44.39
2022-09-07T03:21:57.030Z,44.12
2022-09-07T03:22:34.431Z,44.52
2022-09-07T03:23:14.282Z,44.04
2022-09-07T03:23:52.978Z,44.23
2022-09-07T03:24:31.744Z,44.35
2022-09-07T03:25:08.762Z,44.27
2022-09-07T03:25:45.765Z,44.17
2022-09-07T03:26:26.400Z,44.06
2022-09-07T03:27:03.455Z,44.30
2022-09-07T03:27:41.505Z,44.29
2022-09-07T03:28:19.560Z,44.12
2022-09-07T03:28:58.091Z,44.42
2022-09-07T03:29:36.556Z,44.11
2022-09-07T03:30:15.430Z,43.99
2022-09-07T03:30:53.960Z,44.16
2022-09-07T03:31:32.867Z,44.11
2022-09-07T03:32:10.005Z,44.33
2022-09-07T03:32:48.152Z,44.46
2022-09-07T03:33:26.744Z,44.24
2022-09-07T03:34:04.892Z,44.17
2022-09-07T03:34:43.290Z,44.38
2022-09-07T03:35:20.535Z,44.10
2022-09-07T03:36:01.088Z,44.30
2022-09-07T03:36:38.682Z,43.94
2022-09-07T03:37:16.663Z,44.09
2022-09-07T03:37:55.355Z,43.79
2022-09-07T03:38:32.467Z,44.25
2022-09-07T03:39:09.804Z,43.98
2022-09-07T03:39:47.867Z,43.82
2022-09-07T03:40:26.020Z,44.18
2022-09-07T03:41:05.320Z,43.92
2022-09-07T03:41:42.805Z,44.06
2022-09-07T03:42:19.834Z,44.16
2022-09-07T03:42:58.199Z,44.23
2022-09-07T03:43:36.200Z,43.93
2022-09-07T03:44:14.719Z,44.35
2022-09-07T03:44:51.979Z,44.23
2022-09-07T03:45:29.836Z,44.22
2022-09-07T03:46:07.219Z,43.93
2022-09-07T03:46:44.772Z,43.99
2022-09-07T03:47:23.205Z,44.34
2022-09-07T03:48:00.502Z,44.37
2022-09-07T03:48:37.391Z,44.13
2022-09-07T03:49:14.359Z,44.57
2022-09-07T03:49:52.737Z,44.41
2022-09-07T03:50:29.587Z,44.74
2022-09-07T03:51:06.156Z,44.45
2022-09-07T03:51:44.475Z,44.72
2022-09-07T03:52:22.616Z,44.69
2022-09-07T03:52:59.884Z,44.69
2022-09-07T03:53:36.769Z,44.59
2022-09-07T03:54:14.552Z,44.31
2022-09-07T03:54:52.359Z,44.62
2022-09-07T03:55:29.307Z,44.33
2022-09-07T03:56:09.218Z,44.37
2022-09-07T03:56:46.234Z,44.54
2022-09-07T03:57:23.921Z,44.50
2022-09-07T03:58:00.762Z,44.25
2022-09-07T03:58:37.599Z,44.39
2022-09-07T03:59:14.358Z,44.41
2022-09-07T03:59:52.592Z,44.61
2022-09-07T04:00:32.459Z,44.58
2022-09-07T04:01:09.572Z,44.37
2022-09-07T04:01:48.342Z,43.98
2022-09-07T04:02:27.360Z,44.36
2022-09-07T04:03:06.212Z,44.06
2022-09-07T04:03:44.444Z,44.07
2022-09-07T04:04:22.747Z,43.83
2022-09-07T04:05:01.065Z,44.00
2022-09-07T04:05:40.288Z,44.22
2022-09-07T04:06:19.249Z,44.08
2022-09-07T04:06:58.007Z,44.42
2022-09-07T04:07:36.538Z,44.59
2022-09-07T04:08:14.246Z,44.17
2022-09-07T04:08:54.030Z,44.52
2022-09-07T04:09:32.575Z,44.15
2022-09-07T04:10:10.512Z,44.11
2022-09-07T04:10:49.078Z,44.05
2022-09-07T04:11:28.163Z,43.88
2022-09-07T04:12:07.856Z,43.94
2022-09-07T04:12:46.732Z,44.12
2022-09-07T04:13:24.921Z,44.16
2022-09-07T04:14:03.497Z,44.28
2022-09-07T04:14:42.677Z,44.08
2022-09-07T04:15:20.350Z,44.03
2022-09-07T04:16:00.307Z,44.40
2022-09-07T04:16:40.151Z,44.28
2022-09-07T04:17:20.500Z,44.15
2022-09-07T04:17:59.011Z,44.29
2022-09-07T04:18:36.487Z,44.32
2022-09-07T04:19:14.585Z,44.33
2022-09-07T04:19:54.206Z,44.28
2022-09-07T04:20:32.448Z,44.52
2022-09-07T04:21:10.500Z,44.32
2022-09-07T04:21:49.002Z,44.18
2022-09-07T04:22:28.265Z,44.27
2022-09-07T04:23:07.492Z,44.37
2022-09-07T04:23:46.233Z,44.55
2022-09-07T04:24:24.707Z,44.26
2022-09-07T04:25:02.960Z,44.60
2022-09-07T04:25:41.802Z,44.43
2022-09-07T04:26:18.825Z,44.58
2022-09-07T04:26:56.774Z,44.61
2022-09-07T04:27:35.113Z,44.67
2022-09-07T04:28:12.245Z,44.34
2022-09-07T04:28:51.442Z,44.29
2022-09-07T04:29:27.998Z,44.74
2022-09-07T04:30:05.325Z,44.74
2022-09-07T04:30:44.165Z,44.53
2022-09-07T04:31:22.156Z,44.71
2022-09-07T04:32:12.364Z,44.52
2022-09-07T04:34:31.458Z,44.48
2022-09-07T04:35:10.534Z,44.55
2022-09-07T04:35:48.659Z,44.75
2022-09-07T04:36:27.064Z,44.94
2022-09-07T04:37:05.689Z,44.71
2022-09-07T04:37:45.156Z,44.87
2022-09-07T04:38:24.070Z,44.55
2022-09-07T04:39:02.729Z,44.83
2022-09-07T04:39:46.351Z,44.93
2022-09-07T04:42:30.023Z,44.91
2022-09-07T04:43:08.809Z,44.57
2022-09-07T04:43:48.180Z,44.96
2022-09-07T04:44:27.726Z,45.01
2022-09-07T04:45:07.353Z,44.92
2022-09-07T04:45:46.174Z,44.58
2022-09-07T04:46:22.996Z,44.90
2022-09-07T04:47:02.406Z,44.86
2022-09-07T04:47:39.506Z,44.65
2022-09-07T04:48:18.677Z,44.74
2022-09-07T04:48:56.733Z,44.67
2022-09-07T04:49:35.072Z,44.71
2022-09-07T04:50:12.240Z,44.50
2022-09-07T04:50:51.492Z,44.48
2022-09-07T04:51:29.563Z,44.45
2022-09-07T04:52:08.881Z,44.37
2022-09-07T04:52:45.784Z,44.86
2022-09-07T04:53:25.097Z,44.89
2022-09-07T04:54:05.245Z,44.96
2022-09-07T04:54:44.104Z,44.52
2022-09-07T04:55:22.136Z,44.92
2022-09-07T04:56:01.998Z,44.84
2022-09-07T04:56:39.234Z,44.83
2022-09-07T04:57:16.963Z,44.53
2022-09-07T04:57:56.001Z,44.78
2022-09-07T04:58:34.568Z,44.60
2022-09-07T04:59:13.178Z,44.62
2022-09-07T04:59:50.886Z,44.76
2022-09-07T05:00:29.643Z,44.85
2022-09-07T05:01:07.608Z,44.86
2022-09-07T05:01:45.751Z,44.65
2022-09-07T05:02:23.674Z,44.78
2022-09-07T05:03:02.580Z,44.31
2022-09-07T05:03:40.119Z,44.58
2022-09-07T05:04:18.304Z,44.33
2022-09-07T05:04:59.447Z,44.66
2022-09-07T05:05:44.002Z,44.59
2022-09-07T05:06:22.417Z,44.43
2022-09-07T05:07:00.901Z,44.34
2022-09-07T05:07:40.298Z,44.64
2022-09-07T05:08:18.884Z,44.45
2022-09-07T05:08:55.735Z,44.46
2022-09-07T05:09:34.572Z,44.32
2022-09-07T05:10:13.413Z,44.37
2022-09-07T05:10:58.151Z,44.40
2022-09-07T05:11:36.889Z,44.57
2022-09-07T05:12:14.948Z,44.40
2022-09-07T05:12:54.412Z,44.41
2022-09-07T05:13:31.573Z,44.53
2022-09-07T05:14:11.224Z,44.06
2022-09-07T05:14:49.830Z,44.10
2022-09-07T05:15:27.210Z,44.34
2022-09-07T05:16:05.809Z,44.11
2022-09-07T05:16:44.115Z,44.00
2022-09-07T05:17:22.103Z,44.38
2022-09-07T05:18:00.122Z,44.28
2022-09-07T05:18:38.545Z,44.19
2022-09-07T05:19:16.461Z,43.99
2022-09-07T05:19:55.437Z,44.36
2022-09-07T05:20:33.914Z,44.33
2022-09-07T05:21:11.079Z,43.99
2022-09-07T05:21:50.358Z,44.47
2022-09-07T05:22:28.931Z,44.48
2022-09-07T05:23:08.114Z,44.64
2022-09-07T05:23:46.709Z,44.26
2022-09-07T05:24:24.757Z,44.29
2022-09-07T05:25:02.734Z,44.63
2022-09-07T05:25:44.742Z,44.58
2022-09-07T05:26:22.668Z,44.41
2022-09-07T05:27:01.206Z,44.65
2022-09-07T05:27:39.359Z,44.56
2022-09-07T05:28:19.582Z,44.65
2022-09-07T05:30:02.331Z,44.64
2022-09-07T05:31:35.936Z,44.43
2022-09-07T05:32:12.776Z,44.52
2022-09-07T05:32:51.418Z,44.35
2022-09-07T05:34:29.908Z,44.21
2022-09-07T05:35:06.920Z,44.45
2022-09-07T05:35:43.957Z,44.35
2022-09-07T05:36:21.319Z,44.50
2022-09-07T05:36:59.786Z,44.58
2022-09-07T05:37:37.127Z,44.57
2022-09-07T05:38:16.936Z,44.60
2022-09-07T05:38:55.016Z,44.60
2022-09-07T05:39:31.734Z,44.23
2022-09-07T05:40:09.206Z,44.59
2022-09-07T05:40:46.919Z,44.53
2022-09-07T05:41:25.875Z,44.55
2022-09-07T05:42:04.254Z,44.67
2022-09-07T05:42:42.675Z,44.61
2022-09-07T05:43:21.463Z,44.65
2022-09-07T05:44:57.699Z,44.49
2022-09-07T05:45:35.765Z,44.48
2022-09-07T05:46:14.380Z,44.52
2022-09-07T05:46:53.071Z,44.09
2022-09-07T05:47:31.592Z,44.40
2022-09-07T05:48:10.340Z,44.32
2022-09-07T05:48:49.123Z,44.39
2022-09-07T05:49:28.515Z,44.49
2022-09-07T05:50:05.777Z,44.38
2022-09-07T05:50:45.152Z,44.26
2022-09-07T05:51:23.396Z,44.60
2022-09-07T05:52:01.695Z,44.58
2022-09-07T05:52:41.016Z,44.40
2022-09-07T05:53:20.079Z,44.34
2022-09-07T05:53:58.544Z,44.55
2022-09-07T05:54:37.258Z,44.50
2022-09-07T05:55:29.541Z,44.43
2022-09-07T05:56:08.290Z,44.11
2022-09-07T05:56:46.048Z,44.27
2022-09-07T05:57:24.124Z,44.09
2022-09-07T05:58:03.656Z,44.46
2022-09-07T05:58:41.822Z,44.14
2022-09-07T05:59:21.203Z,44.47
2022-09-07T05:59:59.530Z,44.36
2022-09-07T06:00:38.088Z,44.42
2022-09-07T06:01:16.519Z,44.40
2022-09-07T06:01:55.639Z,44.24
2022-09-07T06:02:38.997Z,44.10
2022-09-07T06:03:17.517Z,44.25
2022-09-07T06:03:55.511Z,44.30
2022-09-07T06:04:34.391Z,44.00
2022-09-07T06:05:11.108Z,44.37
2022-09-07T06:05:49.633Z,44.32
2022-09-07T06:06:28.345Z,44.06
2022-09-07T06:07:23.255Z,44.21
2022-09-07T06:08:00.982Z,44.34
2022-09-07T06:08:38.167Z,44.11
2022-09-07T06:09:16.813Z,44.52
2022-09-07T06:10:52.628Z,44.52
2022-09-07T06:11:31.640Z,44.47
2022-09-07T06:12:09.399Z,44.16
2022-09-07T06:12:49.388Z,44.57
2022-09-07T06:13:26.377Z,44.33
2022-09-07T06:14:06.283Z,44.56
2022-09-07T06:14:44.795Z,44.44
2022-09-07T06:15:22.868Z,44.21
2022-09-07T06:16:04.007Z,44.55
2022-09-07T06:16:42.872Z,44.66
2022-09-07T06:17:20.823Z,44.51
2022-09-07T06:17:58.806Z,44.67
2022-09-07T06:18:37.265Z,44.78
2022-09-07T06:19:14.472Z,44.83
2022-09-07T06:19:54.709Z,44.35
2022-09-07T06:20:32.769Z,44.58
2022-09-07T06:21:11.050Z,44.23
2022-09-07T06:21:49.007Z,44.36
2022-09-07T06:22:31.025Z,44.73
2022-09-07T06:23:09.208Z,44.60
2022-09-07T06:23:47.689Z,44.44
2022-09-07T06:24:26.703Z,44.57
2022-09-07T06:25:05.479Z,44.55
2022-09-07T06:25:49.744Z,44.66
2022-09-07T06:26:27.880Z,44.74
2022-09-07T06:27:05.970Z,44.37
2022-09-07T06:27:44.432Z,44.76
2022-09-07T06:28:22.924Z,44.75
2022-09-07T06:29:01.182Z,44.61
2022-09-07T06:29:40.530Z,44.39
2022-09-07T06:30:17.796Z,44.65
2022-09-07T06:30:54.590Z,44.91
2022-09-07T06:31:32.483Z,44.92
2022-09-07T06:33:04.647Z,44.50
2022-09-07T06:33:41.569Z,44.98
2022-09-07T06:34:19.070Z,44.54
2022-09-07T06:34:56.717Z,44.79
2022-09-07T06:35:34.243Z,44.84
2022-09-07T06:36:15.366Z,44.97
2022-09-07T06:36:53.410Z,44.79
2022-09-07T06:37:31.808Z,44.98
2022-09-07T06:38:10.559Z,44.64
2022-09-07T06:38:48.619Z,44.91
2022-09-07T06:39:27.227Z,44.71
2022-09-07T06:40:05.601Z,45.12
2022-09-07T06:40:44.204Z,45.00
2022-09-07T06:42:18.510Z,44.98
2022-09-07T06:42:56.708Z,44.62
2022-09-07T06:43:35.003Z,44.74
2022-09-07T06:44:12.221Z,44.79
2022-09-07T06:44:54.041Z,44.64
2022-09-07T06:45:32.666Z,44.97
2022-09-07T06:47:09.268Z,44.68
2022-09-07T06:47:48.675Z,44.58
2022-09-07T06:48:27.488Z,44.80
2022-09-07T06:49:05.716Z,45.06
2022-09-07T06:49:44.080Z,44.90
2022-09-07T06:50:22.666Z,44.92
2022-09-07T06:51:06.751Z,44.88
2022-09-07T06:51:44.359Z,44.80
2022-09-07T06:52:21.508Z,44.84
2022-09-07T06:55:00.605Z,45.04
2022-09-07T06:55:39.316Z,44.84
2022-09-07T06:56:16.518Z,44.73
2022-09-07T06:56:54.680Z,44.93
2022-09-07T06:57:31.490Z,44.82
2022-09-07T06:58:11.275Z,45.11
2022-09-07T06:58:50.591Z,44.93
2022-09-07T06:59:28.580Z,45.00
2022-09-07T07:00:05.703Z,44.92
2022-09-07T07:00:44.057Z,44.99
2022-09-07T07:01:21.214Z,44.94
2022-09-07T07:01:59.137Z,45.04
2022-09-07T07:02:38.153Z,44.77
2022-09-07T07:03:17.458Z,44.71
2022-09-07T07:03:56.207Z,44.71
2022-09-07T07:04:40.239Z,44.49
2022-09-07T07:05:17.093Z,44.85
2022-09-07T07:05:55.601Z,44.90
2022-09-07T07:06:39.869Z,44.57
2022-09-07T07:07:18.107Z,44.79
2022-09-07T07:07:56.189Z,45.03
2022-09-07T07:08:34.636Z,44.83
2022-09-07T07:09:12.862Z,44.81
2022-09-07T07:09:51.904Z,44.70
2022-09-07T07:10:30.636Z,44.99
2022-09-07T07:11:08.851Z,45.17
2022-09-07T07:11:47.676Z,45.06
2022-09-07T07:12:59.814Z,44.59
2022-09-07T07:13:38.061Z,44.64
2022-09-07T07:14:18.633Z,44.58
2022-09-07T07:14:56.715Z,44.69
2022-09-07T07:15:35.417Z,45.19
2022-09-07T07:16:13.241Z,44.73
2022-09-07T07:16:52.861Z,45.08
2022-09-07T07:17:31.417Z,44.92
2022-09-07T07:18:20.337Z,45.24
2022-09-07T07:19:02.450Z,45.28
2022-09-07T07:19:41.157Z,45.26
2022-09-07T07:20:18.493Z,45.38
2022-09-07T07:20:57.249Z,45.16
2022-09-07T07:21:55.255Z,45.29
2022-09-07T07:22:48.164Z,44.87
2022-09-07T07:23:27.095Z,44.92
2022-09-07T07:24:08.067Z,45.11
2022-09-07T07:24:46.341Z,44.98
2022-09-07T07:25:25.444Z,45.12
2022-09-07T07:26:08.256Z,45.35
2022-09-07T07:26:46.098Z,45.25
2022-09-07T07:27:24.558Z,45.03
2022-09-07T07:29:37.998Z,45.60
2022-09-07T07:30:15.116Z,45.49
2022-09-07T07:30:52.871Z,45.60
2022-09-07T07:31:31.337Z,45.62
2022-09-07T07:32:09.811Z,45.47
2022-09-07T07:32:48.662Z,45.73
2022-09-07T07:33:26.869Z,45.58
2022-09-07T07:34:05.657Z,45.48
2022-09-07T07:34:43.849Z,45.47
2022-09-07T07:35:22.149Z,45.78
2022-09-07T07:36:01.197Z,45.67
2022-09-07T07:36:39.637Z,45.56
2022-09-07T07:37:17.459Z,45.29
2022-09-07T07:40:33.258Z,45.83
2022-09-07T07:42:07.227Z,45.58
2022-09-07T07:42:46.057Z,45.64
2022-09-07T07:43:24.683Z,45.72
2022-09-07T07:44:03.810Z,45.44
2022-09-07T07:44:41.023Z,45.39
2022-09-07T07:46:16.930Z,45.62
2022-09-07T07:46:55.662Z,45.73
2022-09-07T07:47:33.943Z,45.43
2022-09-07T07:48:12.972Z,45.77
2022-09-07T07:48:54.417Z,45.83
2022-09-07T07:49:32.604Z,45.92
2022-09-07T07:51:09.880Z,45.55
2022-09-07T07:53:41.244Z,45.28
2022-09-07T07:53:43.011Z,45.59
2022-09-07T07:54:21.006Z,45.63
2022-09-07T07:54:59.527Z,45.52
2022-09-07T07:55:45.623Z,45.50
2022-09-07T07:56:23.558Z,45.66
2022-09-07T07:57:01.746Z,45.50
2022-09-07T07:57:40.139Z,45.28
2022-09-07T07:58:18.963Z,45.20
2022-09-07T07:58:57.125Z,45.57
2022-09-07T07:59:35.600Z,45.73
2022-09-07T08:00:12.742Z,45.38
2022-09-07T08:00:54.590Z,45.75
2022-09-07T08:01:32.090Z,45.31
2022-09-07T08:02:09.869Z,45.54
2022-09-07T08:02:46.932Z,45.61
2022-09-07T08:03:25.480Z,45.18
2022-09-07T08:04:03.756Z,45.45
2022-09-07T08:04:41.202Z,45.51
2022-09-07T08:05:17.886Z,45.55
2022-09-07T08:05:55.152Z,45.08
2022-09-07T08:06:32.454Z,45.54
2022-09-07T08:07:10.945Z,45.74
2022-09-07T08:07:48.055Z,45.71
2022-09-07T08:08:25.064Z,45.94
2022-09-07T08:09:01.848Z,45.32
2022-09-07T08:09:40.376Z,45.69
2022-09-07T08:10:17.191Z,45.65
2022-09-07T08:10:53.935Z,45.56
2022-09-07T08:11:31.468Z,45.31
2022-09-07T08:12:09.383Z,45.53
2022-09-07T08:12:47.571Z,45.30
2022-09-07T08:13:24.692Z,45.59
2022-09-07T08:14:02.867Z,45.48
2022-09-07T08:14:40.540Z,45.16
2022-09-07T08:15:17.207Z,45.42
2022-09-07T08:15:55.755Z,45.56
2022-09-07T08:16:33.458Z,45.59
2022-09-07T08:17:10.834Z,45.53
2022-09-07T08:17:47.592Z,45.32
2022-09-07T08:18:24.448Z,45.63
2022-09-07T08:19:03.361Z,45.72
2022-09-07T08:19:41.353Z,45.78
2022-09-07T08:20:18.709Z,45.50
2022-09-07T08:20:56.973Z,45.56
2022-09-07T08:21:34.997Z,45.28
2022-09-07T08:22:13.792Z,45.40
2022-09-07T08:22:53.775Z,45.55
2022-09-07T08:23:31.662Z,45.28
2022-09-07T08:24:10.099Z,45.17
2022-09-07T08:24:48.975Z,45.60
2022-09-07T08:25:27.853Z,45.35
2022-09-07T08:26:06.430Z,45.74
2022-09-07T08:26:44.812Z,45.67
2022-09-07T08:27:22.677Z,45.72
2022-09-07T08:28:01.722Z,45.56
2022-09-07T08:28:38.852Z,45.60
2022-09-07T08:29:17.213Z,45.59
2022-09-07T08:29:55.544Z,45.57
2022-09-07T08:30:32.936Z,45.43
2022-09-07T08:31:12.861Z,46.07
2022-09-07T08:31:50.726Z,45.81
2022-09-07T08:32:28.462Z,45.33
2022-09-07T08:33:05.635Z,45.44
2022-09-07T08:33:43.591Z,45.70
2022-09-07T08:34:21.680Z,46.07
2022-09-07T08:34:58.320Z,45.72
2022-09-07T08:35:35.182Z,45.52
2022-09-07T08:36:12.992Z,45.91
2022-09-07T08:36:49.855Z,45.50
2022-09-07T08:37:28.124Z,45.92
2022-09-07T08:38:05.823Z,45.27
2022-09-07T08:38:43.135Z,45.63
2022-09-07T08:39:19.999Z,45.88
2022-09-07T08:39:57.067Z,45.87
2022-09-07T08:40:34.034Z,45.75
2022-09-07T08:41:28.035Z,45.58
2022-09-07T08:42:19.775Z,45.48
2022-09-07T08:43:01.793Z,45.77
2022-09-07T08:43:49.274Z,45.89
2022-09-07T08:44:28.177Z,45.64
2022-09-07T08:45:20.450Z,45.50
2022-09-07T08:45:59.073Z,45.55
2022-09-07T08:46:38.886Z,45.78
2022-09-07T08:47:20.529Z,45.59
2022-09-07T08:47:58.306Z,46.05
2022-09-07T08:48:36.385Z,45.63